createdAt,value
2023-07-22T00:02:07.216Z,98693.34
2023-07-22T00:04:35.080Z,98699.75
2023-07-22T00:07:03.282Z,98701.09
2023-07-22T00:09:31.123Z,98697.50
2023-07-22T00:11:58.915Z,98711.28
2023-07-22T00:14:26.808Z,98713.69
2023-07-22T00:16:54.697Z,98718.91
2023-07-22T00:19:24.540Z,98709.78
2023-07-22T00:21:53.182Z,98716.91
2023-07-22T00:24:22.644Z,98713.03
2023-07-22T00:26:51.642Z,98705.56
2023-07-22T00:29:19.560Z,98700.47
2023-07-22T00:31:47.292Z,98707.91
2023-07-22T00:34:15.080Z,98699.97
2023-07-22T00:36:45.235Z,98704.47
2023-07-22T00:39:14.974Z,98702.13
2023-07-22T00:41:45.205Z,98704.50
2023-07-22T00:44:13.643Z,98694.53
2023-07-22T00:46:41.456Z,98694.13
2023-07-22T00:49:10.051Z,98688.94
2023-07-22T00:51:37.911Z,98698.53
2023-07-22T00:54:07.270Z,98694.53
2023-07-22T00:56:37.950Z,98689.81
2023-07-22T00:59:07.082Z,98687.47
2023-07-22T01:01:34.999Z,98680.72
2023-07-22T01:04:05.518Z,98690.13
2023-07-22T01:06:34.577Z,98688.91
2023-07-22T01:09:02.600Z,98691.94
2023-07-22T01:11:32.530Z,98696.94
2023-07-22T01:14:01.298Z,98694.16
2023-07-22T01:16:30.085Z,98688.59
2023-07-22T01:18:58.794Z,98683.88
2023-07-22T01:21:27.441Z,98686.63
2023-07-22T01:23:58.359Z,98685.44
2023-07-22T01:26:26.534Z,98685.03
2023-07-22T01:29:04.438Z,98672.16
2023-07-22T01:31:32.375Z,98676.97
2023-07-22T01:34:00.828Z,98685.03
2023-07-22T01:36:28.742Z,98680.22
2023-07-22T01:38:58.019Z,98673.56
2023-07-22T01:41:25.761Z,98673.53
2023-07-22T01:43:53.510Z,98677.09
2023-07-22T01:46:22.773Z,98667.19
2023-07-22T01:48:50.929Z,98668.28
2023-07-22T01:51:18.717Z,98683.38
2023-07-22T01:53:46.597Z,98684.19
2023-07-22T01:56:17.462Z,98681.72
2023-07-22T01:58:45.332Z,98675.38
2023-07-22T02:01:14.998Z,98687.00
2023-07-22T02:03:42.978Z,98671.59
2023-07-22T02:06:10.963Z,98669.94
2023-07-22T02:08:38.827Z,98669.59
2023-07-22T02:11:08.029Z,98663.63
2023-07-22T02:13:37.728Z,98664.78
2023-07-22T02:16:06.286Z,98671.56
2023-07-22T02:18:34.188Z,98674.75
2023-07-22T02:21:02.000Z,98666.78
2023-07-22T02:23:29.830Z,98679.13
2023-07-22T02:25:57.667Z,98681.09
2023-07-22T02:28:27.651Z,98680.69
2023-07-22T02:30:56.938Z,98682.63
2023-07-22T02:33:24.857Z,98687.00
2023-07-22T02:35:54.263Z,98688.22
2023-07-22T02:38:22.105Z,98680.28
2023-07-22T02:40:49.955Z,98678.72
2023-07-22T02:43:17.740Z,98669.53
2023-07-22T02:45:45.961Z,98681.81
2023-07-22T02:48:15.616Z,98685.03
2023-07-22T02:50:43.583Z,98688.22
2023-07-22T02:53:11.378Z,98683.47
2023-07-22T02:55:39.348Z,98680.69
2023-07-22T02:58:07.314Z,98685.81
2023-07-22T03:00:35.163Z,98686.13
2023-07-22T03:03:03.083Z,98688.94
2023-07-22T03:05:33.659Z,98683.47
2023-07-22T03:08:01.750Z,98676.72
2023-07-22T03:10:30.165Z,98678.31
2023-07-22T03:12:58.312Z,98671.97
2023-07-22T03:15:27.203Z,98677.09
2023-07-22T03:17:56.792Z,98677.06
2023-07-22T03:20:26.146Z,98671.56
2023-07-22T03:22:55.600Z,98667.59
2023-07-22T03:25:23.497Z,98671.56
2023-07-22T03:27:51.451Z,98670.38
2023-07-22T03:30:20.603Z,98666.03
2023-07-22T03:32:51.445Z,98675.13
2023-07-22T03:35:19.865Z,98671.97
2023-07-22T03:37:48.357Z,98663.22
2023-07-22T03:40:20.733Z,98669.97
2023-07-22T03:42:48.956Z,98671.94
2023-07-22T03:45:17.181Z,98672.34
2023-07-22T03:47:46.269Z,98681.88
2023-07-22T03:50:14.496Z,98678.69
2023-07-22T03:52:42.255Z,98689.84
2023-07-22T03:55:11.847Z,98679.50
2023-07-22T03:57:41.082Z,98682.66
2023-07-22T04:00:11.474Z,98685.03
2023-07-22T04:02:41.957Z,98687.03
2023-07-22T04:05:10.786Z,98688.16
2023-07-22T04:07:39.136Z,98696.50
2023-07-22T04:10:12.023Z,98692.19
2023-07-22T04:12:42.893Z,98687.81
2023-07-22T04:15:12.697Z,98690.22
2023-07-22T04:17:41.200Z,98676.72
2023-07-22T04:20:10.501Z,98689.81
2023-07-22T04:22:38.329Z,98681.09
2023-07-22T04:25:07.465Z,98678.69
2023-07-22T04:27:35.692Z,98687.06
2023-07-22T04:30:05.326Z,98685.06
2023-07-22T04:32:34.457Z,98689.41
2023-07-22T04:35:03.647Z,98689.81
2023-07-22T04:37:31.442Z,98687.81
2023-07-22T04:39:59.213Z,98685.38
2023-07-22T04:42:28.682Z,98687.31
2023-07-22T04:44:56.493Z,98686.13
2023-07-22T04:47:25.642Z,98686.53
2023-07-22T04:49:53.538Z,98688.94
2023-07-22T04:52:21.400Z,98686.53
2023-07-22T04:54:49.233Z,98693.31
2023-07-22T04:57:18.098Z,98690.91
2023-07-22T04:59:45.868Z,98693.66
2023-07-22T05:02:14.218Z,98685.78
2023-07-22T05:04:43.367Z,98690.97
2023-07-22T05:07:11.195Z,98686.13
2023-07-22T05:09:39.045Z,98692.88
2023-07-22T05:12:07.830Z,98692.81
2023-07-22T05:14:35.659Z,98703.91
2023-07-22T05:17:03.516Z,98690.44
2023-07-22T05:19:31.296Z,98695.34
2023-07-22T05:22:00.483Z,98694.53
2023-07-22T05:24:28.390Z,98702.81
2023-07-22T05:27:08.473Z,98701.53
2023-07-22T05:29:37.262Z,98707.19
2023-07-22T05:32:09.748Z,98709.50
2023-07-22T05:34:41.983Z,98707.94
2023-07-22T05:37:11.103Z,98710.56
2023-07-22T05:39:38.861Z,98708.56
2023-07-22T05:42:07.669Z,98711.00
2023-07-22T05:44:35.502Z,98714.22
2023-07-22T05:47:03.440Z,98716.94
2023-07-22T05:49:31.210Z,98721.28
2023-07-22T05:51:59.043Z,98721.53
2023-07-22T05:54:28.121Z,98723.75
2023-07-22T05:56:55.894Z,98723.00
2023-07-22T05:59:23.742Z,98724.06
2023-07-22T06:01:52.008Z,98720.50
2023-07-22T06:04:19.986Z,98717.91
2023-07-22T06:06:47.901Z,98723.22
2023-07-22T06:09:15.654Z,98719.84
2023-07-22T06:11:44.793Z,98728.03
2023-07-22T06:14:13.092Z,98724.38
2023-07-22T06:16:41.105Z,98735.22
2023-07-22T06:19:09.186Z,98736.75
2023-07-22T06:21:37.003Z,98742.50
2023-07-22T06:24:05.179Z,98732.91
2023-07-22T06:26:33.065Z,98740.34
2023-07-22T06:29:02.183Z,98737.69
2023-07-22T06:31:31.835Z,98740.97
2023-07-22T06:34:00.604Z,98742.56
2023-07-22T06:36:29.670Z,98733.84
2023-07-22T06:38:57.962Z,98736.25
2023-07-22T06:41:26.311Z,98735.56
2023-07-22T06:43:55.242Z,98740.81
2023-07-22T06:46:24.421Z,98743.78
2023-07-22T06:48:52.188Z,98732.09
2023-07-22T06:51:20.064Z,98743.75
2023-07-22T06:53:47.855Z,98740.78
2023-07-22T06:56:15.753Z,98737.13
2023-07-22T06:58:43.546Z,98747.88
2023-07-22T07:01:11.481Z,98730.94
2023-07-22T07:03:40.656Z,98738.75
2023-07-22T07:06:08.531Z,98732.81
2023-07-22T07:08:36.314Z,98727.31
2023-07-22T07:11:04.160Z,98741.19
2023-07-22T07:13:31.953Z,98741.28
2023-07-22T07:16:23.103Z,98733.56
2023-07-22T07:18:52.915Z,98739.00
2023-07-22T07:21:21.091Z,98736.66
2023-07-22T07:23:49.833Z,98737.78
2023-07-22T07:26:17.862Z,98733.84
2023-07-22T07:28:47.422Z,98738.66
2023-07-22T07:31:15.384Z,98738.88
2023-07-22T07:33:43.182Z,98740.00
2023-07-22T07:36:12.410Z,98737.38
2023-07-22T07:38:40.253Z,98740.50
2023-07-22T07:41:09.605Z,98739.63
2023-07-22T07:43:37.375Z,98742.53
2023-07-22T07:46:16.149Z,98741.47
2023-07-22T07:48:43.995Z,98743.78
2023-07-22T07:51:14.564Z,98747.56
2023-07-22T07:53:43.106Z,98741.66
2023-07-22T07:56:10.971Z,98742.19
2023-07-22T07:58:39.448Z,98739.59
2023-07-22T08:01:07.452Z,98735.47
2023-07-22T08:03:36.500Z,98741.56
2023-07-22T08:06:05.090Z,98735.66
2023-07-22T08:08:35.101Z,98738.44
2023-07-22T08:11:04.170Z,98735.53
2023-07-22T08:13:32.796Z,98731.22
2023-07-22T08:16:00.979Z,98731.91
2023-07-22T08:18:31.251Z,98732.66
2023-07-22T08:20:59.778Z,98727.91
2023-07-22T08:23:27.618Z,98740.69
2023-07-22T08:25:56.785Z,98731.97
2023-07-22T08:28:24.525Z,98728.34
2023-07-22T08:30:52.555Z,98730.84
2023-07-22T08:33:27.530Z,98734.31
2023-07-22T08:36:07.349Z,98728.00
2023-07-22T08:38:35.272Z,98732.25
2023-07-22T08:41:04.524Z,98733.75
2023-07-22T08:43:35.234Z,98735.00
2023-07-22T08:46:04.005Z,98728.44
2023-07-22T08:48:33.853Z,98722.38
2023-07-22T08:51:05.892Z,98728.03
2023-07-22T08:53:34.946Z,98723.34
2023-07-22T08:56:06.879Z,98722.66
2023-07-22T08:58:37.261Z,98717.03
2023-07-22T09:01:05.051Z,98718.50
2023-07-22T09:03:33.256Z,98721.09
2023-07-22T09:06:01.522Z,98708.75
2023-07-22T09:08:29.315Z,98718.91
2023-07-22T09:10:58.537Z,98713.88
2023-07-22T09:13:28.705Z,98711.19
2023-07-22T09:15:59.626Z,98714.88
2023-07-22T09:18:27.522Z,98714.25
2023-07-22T09:20:55.410Z,98706.56
2023-07-22T09:23:34.420Z,98709.91
2023-07-22T09:26:11.023Z,98706.66
2023-07-22T09:28:55.531Z,98708.03
2023-07-22T09:31:24.756Z,98700.53
2023-07-22T09:33:55.151Z,98696.69
2023-07-22T09:36:23.240Z,98694.66
2023-07-22T09:39:02.196Z,98704.88
2023-07-22T09:41:30.349Z,98702.00
2023-07-22T09:43:59.617Z,98693.91
2023-07-22T09:46:33.788Z,98688.06
2023-07-22T09:49:05.667Z,98688.16
2023-07-22T09:51:38.109Z,98694.28
2023-07-22T09:54:11.582Z,98687.81
2023-07-22T09:56:47.479Z,98692.63
2023-07-22T09:59:20.225Z,98688.59
2023-07-22T10:01:50.116Z,98683.56
2023-07-22T10:04:19.051Z,98677.38
2023-07-22T10:06:47.484Z,98677.56
2023-07-22T10:09:17.487Z,98680.28
2023-07-22T10:11:45.671Z,98679.69
2023-07-22T10:14:15.501Z,98681.75
2023-07-22T10:16:44.963Z,98679.00
2023-07-22T10:19:14.263Z,98672.84
2023-07-22T10:21:42.408Z,98677.56
2023-07-22T10:24:12.419Z,98675.06
2023-07-22T10:26:47.552Z,98678.63
2023-07-22T10:29:16.225Z,98674.66
2023-07-22T10:31:45.427Z,98667.81
2023-07-22T10:34:13.350Z,98668.84
2023-07-22T10:36:41.272Z,98668.59
2023-07-22T10:39:09.041Z,98670.81
2023-07-22T10:41:41.241Z,98669.59
2023-07-22T10:44:13.630Z,98656.47
2023-07-22T10:46:44.742Z,98655.53
2023-07-22T10:49:17.057Z,98674.22
2023-07-22T10:51:50.253Z,98671.13
2023-07-22T10:54:34.128Z,98667.59
2023-07-22T10:57:06.017Z,98667.00
2023-07-22T10:59:35.571Z,98661.16
2023-07-22T11:02:04.730Z,98654.66
2023-07-22T11:07:06.808Z,98670.84
2023-07-22T11:09:39.328Z,98653.38
2023-07-22T11:12:09.728Z,98649.88
2023-07-22T11:14:40.786Z,98654.56
2023-07-22T11:17:10.098Z,98648.03
2023-07-22T11:19:40.204Z,98637.19
2023-07-22T11:22:08.184Z,98631.72
2023-07-22T11:24:37.161Z,98632.88
2023-07-22T11:27:06.669Z,98627.88
2023-07-22T11:29:34.801Z,98613.03
2023-07-22T11:32:02.815Z,98635.31
2023-07-22T11:34:31.510Z,98620.19
2023-07-22T11:37:00.690Z,98616.69
2023-07-22T11:39:32.694Z,98630.88
2023-07-22T11:42:03.342Z,98614.59
2023-07-22T11:44:33.520Z,98613.25
2023-07-22T11:47:03.215Z,98615.72
2023-07-22T11:49:31.867Z,98609.03
2023-07-22T11:52:02.428Z,98605.97
2023-07-22T11:54:31.721Z,98603.63
2023-07-22T11:56:59.785Z,98606.44
2023-07-22T11:59:38.730Z,98595.47
2023-07-22T12:02:07.168Z,98591.69
2023-07-22T12:04:36.159Z,98586.31
2023-07-22T12:07:06.132Z,98567.31
2023-07-22T12:09:34.144Z,98573.88
2023-07-22T12:12:02.311Z,98578.50
2023-07-22T12:14:37.090Z,98578.84
2023-07-22T12:17:05.251Z,98579.34
2023-07-22T12:19:33.176Z,98592.47
2023-07-22T12:22:00.981Z,98568.03
2023-07-22T12:24:33.253Z,98584.44
2023-07-22T12:27:01.104Z,98578.00
2023-07-22T12:29:28.889Z,98570.44
2023-07-22T12:31:56.751Z,98550.53
2023-07-22T12:34:24.646Z,98564.41
2023-07-22T12:36:52.390Z,98563.94
2023-07-22T12:39:20.272Z,98554.28
2023-07-22T12:41:49.410Z,98554.38
2023-07-22T12:44:17.258Z,98549.97
2023-07-22T12:46:45.075Z,98570.88
2023-07-22T12:49:15.500Z,98552.94
2023-07-22T12:51:45.940Z,98546.84
2023-07-22T12:54:13.744Z,98542.22
2023-07-22T12:56:44.439Z,98537.75
2023-07-22T12:59:13.558Z,98542.16
2023-07-22T13:01:43.238Z,98541.22
2023-07-22T13:04:11.210Z,98553.94
2023-07-22T13:06:39.141Z,98534.16
2023-07-22T13:09:10.543Z,98534.44
2023-07-22T13:11:38.439Z,98538.97
2023-07-22T13:14:06.261Z,98519.81
2023-07-22T13:16:35.367Z,98539.94
2023-07-22T13:19:04.247Z,98534.78
2023-07-22T13:21:32.153Z,98531.41
2023-07-22T13:23:59.957Z,98529.13
2023-07-22T13:26:27.867Z,98533.34
2023-07-22T13:28:55.711Z,98525.22
2023-07-22T13:31:23.713Z,98526.59
2023-07-22T13:33:52.948Z,98518.09
2023-07-22T13:36:20.811Z,98533.84
2023-07-22T13:38:48.724Z,98528.38
2023-07-22T13:41:16.492Z,98520.00
2023-07-22T13:43:44.289Z,98527.28
2023-07-22T13:46:12.137Z,98515.81
2023-07-22T13:48:39.991Z,98526.91
2023-07-22T13:51:09.679Z,98517.72
2023-07-22T13:53:37.481Z,98516.75
2023-07-22T13:56:05.416Z,98520.81
2023-07-22T13:58:33.173Z,98519.72
2023-07-22T14:01:02.496Z,98519.56
2023-07-22T14:03:30.844Z,98526.41
2023-07-22T14:05:58.960Z,98522.50
2023-07-22T14:08:28.139Z,98507.84
2023-07-22T14:10:58.969Z,98494.94
2023-07-22T14:13:26.834Z,98514.00
2023-07-22T14:15:56.792Z,98504.81
2023-07-22T14:18:26.320Z,98498.94
2023-07-22T14:20:54.079Z,98499.88
2023-07-22T14:23:21.857Z,98500.94
2023-07-22T14:25:52.124Z,98490.66
2023-07-22T14:28:20.360Z,98512.97
2023-07-22T14:30:48.191Z,98503.34
2023-07-22T14:33:20.482Z,98493.19
2023-07-22T14:35:48.269Z,98495.25
2023-07-22T14:38:16.411Z,98498.88
2023-07-22T14:40:46.547Z,98506.56
2023-07-22T14:43:15.743Z,98502.34
2023-07-22T14:45:43.571Z,98499.47
2023-07-22T14:48:11.357Z,98498.53
2023-07-22T14:50:39.257Z,98499.44
2023-07-22T14:53:07.020Z,98502.63
2023-07-22T14:55:34.843Z,98496.53
2023-07-22T14:58:02.819Z,98490.44
2023-07-22T15:00:32.061Z,98495.13
2023-07-22T15:02:59.838Z,98501.59
2023-07-22T15:05:27.702Z,98501.56
2023-07-22T15:07:55.485Z,98500.56
2023-07-22T15:10:26.022Z,98500.81
2023-07-22T15:12:57.473Z,98503.31
2023-07-22T15:15:25.565Z,98498.13
2023-07-22T15:17:54.768Z,98501.31
2023-07-22T15:20:22.664Z,98491.94
2023-07-22T15:22:50.487Z,98504.91
2023-07-22T15:25:18.257Z,98503.13
2023-07-22T15:27:46.223Z,98502.41
2023-07-22T15:30:14.114Z,98499.06
2023-07-22T15:32:42.020Z,98497.88
2023-07-22T15:35:13.679Z,98497.13
2023-07-22T15:37:44.064Z,98510.19
2023-07-22T15:40:12.558Z,98506.72
2023-07-22T15:42:40.367Z,98502.19
2023-07-22T15:45:09.864Z,98499.19
2023-07-22T15:47:37.926Z,98495.34
2023-07-22T15:50:06.636Z,98499.56
2023-07-22T15:52:37.901Z,98497.03
2023-07-22T15:55:06.730Z,98490.59
2023-07-22T15:57:37.767Z,98491.34
2023-07-22T16:00:10.598Z,98502.03
2023-07-22T16:02:38.779Z,98492.94
2023-07-22T16:05:09.831Z,98502.63
2023-07-22T16:07:45.248Z,98490.53
2023-07-22T16:10:14.607Z,98500.81
2023-07-22T16:12:42.871Z,98491.44
2023-07-22T16:15:11.276Z,98501.94
2023-07-22T16:17:39.113Z,98495.03
2023-07-22T16:20:08.028Z,98496.94
2023-07-22T16:22:37.117Z,98497.00
2023-07-22T16:25:08.368Z,98502.91
2023-07-22T16:27:42.981Z,98494.78
2023-07-22T16:30:11.021Z,98498.16
2023-07-22T16:32:41.273Z,98496.34
2023-07-22T16:35:09.492Z,98498.09
2023-07-22T16:37:37.271Z,98497.88
2023-07-22T16:40:08.734Z,98494.63
2023-07-22T16:42:36.622Z,98474.69
2023-07-22T16:45:08.747Z,98494.78
2023-07-22T16:47:36.510Z,98485.00
2023-07-22T16:50:05.145Z,98494.00
2023-07-22T16:52:32.971Z,98490.56
2023-07-22T16:55:00.835Z,98493.72
2023-07-22T16:57:30.203Z,98498.41
2023-07-22T17:00:01.234Z,98488.91
2023-07-22T17:02:29.073Z,98497.09
2023-07-22T17:04:56.885Z,98495.94
2023-07-22T17:07:24.680Z,98482.91
2023-07-22T17:09:52.528Z,98486.28
2023-07-22T17:12:20.367Z,98489.81
2023-07-22T17:14:49.471Z,98484.84
2023-07-22T17:17:17.282Z,98494.13
2023-07-22T17:19:49.098Z,98478.56
2023-07-22T17:22:19.938Z,98489.56
2023-07-22T17:24:47.886Z,98484.53
2023-07-22T17:27:15.848Z,98478.59
2023-07-22T17:29:46.523Z,98481.28
2023-07-22T17:32:16.034Z,98476.16
2023-07-22T17:34:43.935Z,98475.69
2023-07-22T17:39:44.485Z,98469.38
2023-07-22T17:42:12.272Z,98485.13
2023-07-22T17:44:43.161Z,98472.31
2023-07-22T17:47:10.967Z,98479.84
2023-07-22T17:49:40.291Z,98474.63
2023-07-22T17:52:08.806Z,98477.97
2023-07-22T17:54:36.570Z,98469.34
2023-07-22T17:57:20.482Z,98472.06
2023-07-22T17:59:50.738Z,98473.09
2023-07-22T18:02:18.903Z,98465.53
2023-07-22T18:04:48.104Z,98464.94
2023-07-22T18:07:16.266Z,98471.94
2023-07-22T18:09:44.061Z,98470.38
2023-07-22T18:12:14.463Z,98482.25
2023-07-22T18:14:42.346Z,98468.94
2023-07-22T18:17:10.227Z,98466.31
2023-07-22T18:19:38.125Z,98461.22
2023-07-22T18:22:07.433Z,98471.69
2023-07-22T18:24:35.223Z,98473.03
2023-07-22T18:27:03.049Z,98469.38
2023-07-22T18:29:35.915Z,98468.13
2023-07-22T18:32:03.805Z,98470.94
2023-07-22T18:34:31.665Z,98471.28
2023-07-22T18:36:59.419Z,98469.31
2023-07-22T18:39:29.840Z,98472.38
2023-07-22T18:41:57.612Z,98467.94
2023-07-22T18:44:27.645Z,98469.84
2023-07-22T18:46:55.381Z,98472.41
2023-07-22T18:49:23.152Z,98465.00
2023-07-22T18:51:50.954Z,98475.91
2023-07-22T18:54:18.690Z,98477.97
2023-07-22T18:56:47.823Z,98477.88
2023-07-22T18:59:15.620Z,98481.72
2023-07-22T19:01:45.122Z,98468.38
2023-07-22T19:04:12.899Z,98478.31
2023-07-22T19:06:40.750Z,98475.31
2023-07-22T19:09:08.628Z,98479.22
2023-07-22T19:11:39.296Z,98477.53
2023-07-22T19:14:08.498Z,98472.50
2023-07-22T19:16:36.677Z,98475.00
2023-07-22T19:19:07.335Z,98475.78
2023-07-22T19:21:35.067Z,98479.53
2023-07-22T19:24:03.165Z,98472.91
2023-07-22T19:26:30.946Z,98479.97
2023-07-22T19:29:01.433Z,98477.47
2023-07-22T19:31:30.887Z,98480.31
2023-07-22T19:33:58.827Z,98492.41
2023-07-22T19:36:26.598Z,98490.94
2023-07-22T19:38:55.194Z,98488.56
2023-07-22T19:41:23.045Z,98486.19
2023-07-22T19:43:50.879Z,98496.19
2023-07-22T19:46:20.832Z,98482.25
2023-07-22T19:48:49.960Z,98496.75
2023-07-22T19:51:19.348Z,98499.50
2023-07-22T19:53:50.438Z,98497.94
2023-07-22T19:56:18.209Z,98494.94
2023-07-22T19:58:48.025Z,98486.88
2023-07-22T20:01:16.297Z,98496.25
2023-07-22T20:03:44.944Z,98488.94
2023-07-22T20:06:14.096Z,98494.94
2023-07-22T20:08:43.831Z,98488.81
2023-07-22T20:11:11.660Z,98488.53
2023-07-22T20:13:39.413Z,98485.00
2023-07-22T20:16:07.874Z,98493.75
2023-07-22T20:18:36.141Z,98491.38
2023-07-22T20:21:04.037Z,98495.91
2023-07-22T20:23:33.289Z,98489.78
2023-07-22T20:26:01.587Z,98490.16
2023-07-22T20:28:32.382Z,98493.75
2023-07-22T20:31:01.868Z,98489.84
2023-07-22T20:33:31.330Z,98497.13
2023-07-22T20:35:59.250Z,98504.41
2023-07-22T20:38:28.506Z,98499.97
2023-07-22T20:40:57.692Z,98501.19
2023-07-22T20:43:25.754Z,98505.84
2023-07-22T20:45:53.673Z,98508.47
2023-07-22T20:48:21.466Z,98512.81
2023-07-22T20:50:49.292Z,98517.81
2023-07-22T20:53:17.072Z,98516.78
2023-07-22T20:55:44.851Z,98512.56
2023-07-22T20:58:14.049Z,98506.63
2023-07-22T21:00:43.655Z,98506.25
2023-07-22T21:03:11.662Z,98502.19
2023-07-22T21:05:39.648Z,98510.09
2023-07-22T21:08:10.303Z,98507.22
2023-07-22T21:10:38.088Z,98502.84
2023-07-22T21:13:07.501Z,98503.53
2023-07-22T21:15:36.706Z,98511.06
2023-07-22T21:18:05.988Z,98509.06
2023-07-22T21:20:33.956Z,98503.16
2023-07-22T21:23:01.754Z,98512.22
2023-07-22T21:25:31.601Z,98508.28
2023-07-22T21:27:59.582Z,98504.25
2023-07-22T21:30:30.094Z,98508.91
2023-07-22T21:33:02.002Z,98510.78
2023-07-22T21:35:30.147Z,98513.03
2023-07-22T21:37:57.939Z,98511.19
2023-07-22T21:40:25.837Z,98507.91
2023-07-22T21:42:53.703Z,98504.97
2023-07-22T21:45:21.792Z,98510.13
2023-07-22T21:47:49.599Z,98501.38
2023-07-22T21:50:18.840Z,98501.59
2023-07-22T21:52:46.634Z,98502.44
2023-07-22T21:55:16.652Z,98502.69
2023-07-22T21:57:46.394Z,98498.34
2023-07-22T22:00:17.059Z,98493.75
2023-07-22T22:02:45.024Z,98497.53
2023-07-22T22:05:12.880Z,98508.28
2023-07-22T22:07:42.263Z,98499.09
2023-07-22T22:10:10.766Z,98488.53
2023-07-22T22:12:38.741Z,98495.66
2023-07-22T22:15:07.840Z,98499.28
2023-07-22T22:17:43.196Z,98492.63
2023-07-22T22:20:22.618Z,98494.81
2023-07-22T22:22:53.134Z,98490.66
2023-07-22T22:25:20.984Z,98494.28
2023-07-22T22:27:48.843Z,98491.44
2023-07-22T22:30:16.809Z,98491.94
2023-07-22T22:32:44.595Z,98488.78
2023-07-22T22:35:14.067Z,98487.09
2023-07-22T22:37:41.883Z,98488.72
2023-07-22T22:40:11.576Z,98483.50
2023-07-22T22:42:39.366Z,98494.22
2023-07-22T22:45:07.882Z,98482.28
2023-07-22T22:47:35.686Z,98488.56
2023-07-22T22:50:03.983Z,98483.19
2023-07-22T22:52:31.826Z,98481.69
2023-07-22T22:54:59.557Z,98480.72
2023-07-22T22:57:28.762Z,98475.78
2023-07-22T22:59:56.588Z,98483.28
2023-07-22T23:02:24.489Z,98490.78
2023-07-22T23:04:52.323Z,98486.59
2023-07-22T23:07:20.152Z,98488.06
2023-07-22T23:09:50.653Z,98483.72
2023-07-22T23:12:18.400Z,98492.34
2023-07-22T23:14:49.910Z,98488.63
2023-07-22T23:17:18.868Z,98483.94
2023-07-22T23:19:46.652Z,98482.78
2023-07-22T23:22:14.418Z,98485.69
2023-07-22T23:24:42.221Z,98479.41
2023-07-22T23:27:10.048Z,98488.28
2023-07-22T23:29:37.991Z,98487.09
2023-07-22T23:32:08.245Z,98487.03
2023-07-22T23:34:36.063Z,98484.09
2023-07-22T23:37:04.138Z,98489.50
2023-07-22T23:39:31.956Z,98484.91
2023-07-22T23:41:59.701Z,98487.25
2023-07-22T23:44:27.477Z,98481.91
2023-07-22T23:46:55.307Z,98480.81
2023-07-22T23:49:24.689Z,98471.47
2023-07-22T23:51:54.926Z,98471.94
2023-07-22T23:54:22.786Z,98476.72
2023-07-22T23:56:50.546Z,98467.00
2023-07-22T23:59:18.333Z,98470.66
